createdAt,value
2022-11-20T00:07:38.917Z,225.13
2022-11-20T00:17:43.826Z,217.10
2022-11-20T00:27:47.329Z,222.27
2022-11-20T00:37:52.329Z,229.60
2022-11-20T00:47:55.831Z,236.63
2022-11-20T00:58:04.311Z,208.00
2022-11-20T01:08:08.002Z,221.83
2022-11-20T01:18:12.843Z,208.03
2022-11-20T01:28:16.372Z,231.83
2022-11-20T01:38:23.591Z,227.63
2022-11-20T01:48:32.649Z,241.67
2022-11-20T01:58:49.708Z,231.30
2022-11-20T02:08:54.393Z,238.10
2022-11-20T02:19:02.801Z,225.80
2022-11-20T02:29:07.845Z,220.70
2022-11-20T02:39:14.044Z,222.17
2022-11-20T02:49:19.209Z,219.80
2022-11-20T02:59:23.442Z,209.10
2022-11-20T03:09:28.698Z,218.07
2022-11-20T03:19:32.329Z,214.13
2022-11-20T03:29:37.882Z,214.63
2022-11-20T03:39:41.357Z,209.50
2022-11-20T03:49:46.203Z,187.37
2022-11-20T03:59:49.671Z,207.97
2022-11-20T04:09:54.459Z,218.00
2022-11-20T04:19:57.901Z,215.27
2022-11-20T04:30:02.759Z,223.53
2022-11-20T04:40:07.867Z,227.07
2022-11-20T04:50:13.320Z,214.63
2022-11-20T05:00:18.360Z,211.27
2022-11-20T05:10:23.267Z,197.20
2022-11-20T05:20:26.707Z,198.67
2022-11-20T05:30:31.519Z,205.27
2022-11-20T05:40:35.251Z,204.03
2022-11-20T05:50:40.094Z,201.77
2022-11-20T06:00:43.570Z,199.47
2022-11-20T06:10:48.538Z,208.83
2022-11-20T06:20:52.026Z,216.83
2022-11-20T06:30:56.959Z,206.50
2022-11-20T06:41:00.633Z,211.60
2022-11-20T06:51:07.981Z,213.77
2022-11-20T07:01:15.390Z,205.50
2022-11-20T07:11:20.232Z,191.47
2022-11-20T07:21:23.669Z,232.60
2022-11-20T07:31:28.532Z,229.07
2022-11-20T07:41:32.251Z,226.73
2022-11-20T07:51:37.077Z,233.23
2022-11-20T08:01:40.779Z,231.17
2022-11-20T08:12:03.006Z,232.40
2022-11-20T08:22:06.453Z,243.23
2022-11-20T08:32:11.269Z,261.27
2022-11-20T08:42:14.870Z,270.23
2022-11-20T08:52:19.689Z,283.53
2022-11-20T09:02:23.165Z,270.37
2022-11-20T09:12:28.032Z,283.43
2022-11-20T09:22:32.694Z,282.00
2022-11-20T09:32:40.865Z,284.00
2022-11-20T09:42:51.722Z,267.23
2022-11-20T09:53:16.173Z,280.90
2022-11-20T10:03:26.969Z,285.03
2022-11-20T10:13:42.370Z,295.53
2022-11-20T10:24:17.790Z,277.27
2022-11-20T10:34:28.708Z,279.73
2022-11-20T10:44:55.155Z,281.90
2022-11-20T10:55:13.818Z,271.93
2022-11-20T11:05:37.459Z,297.63
2022-11-20T11:15:43.508Z,280.30
2022-11-20T11:25:59.658Z,278.07
2022-11-20T11:36:17.655Z,283.63
2022-11-20T11:46:34.577Z,280.80
2022-11-20T11:56:39.549Z,268.87
2022-11-20T12:06:49.741Z,265.33
2022-11-20T12:16:56.721Z,265.17
2022-11-20T12:27:26.398Z,271.63
2022-11-20T12:37:45.385Z,278.60
2022-11-20T12:48:09.652Z,267.53
2022-11-20T12:58:25.849Z,265.80
2022-11-20T13:08:32.434Z,267.67
2022-11-20T13:18:43.518Z,270.10
2022-11-20T13:28:49.349Z,279.93
2022-11-20T13:38:56.601Z,265.53
2022-11-20T13:49:11.312Z,287.07
2022-11-20T13:59:33.143Z,293.57
2022-11-20T14:09:37.193Z,285.40
2022-11-20T14:19:44.142Z,282.37
2022-11-20T14:29:50.409Z,284.63
2022-11-20T14:39:59.853Z,288.33
2022-11-20T14:50:08.799Z,262.13
2022-11-20T15:00:24.331Z,257.37
2022-11-20T15:10:29.905Z,261.03
2022-11-20T15:20:35.843Z,262.77
2022-11-20T15:30:39.307Z,251.47
2022-11-20T15:40:44.539Z,254.63
2022-11-20T15:50:55.652Z,249.90
2022-11-20T16:01:00.724Z,261.00
2022-11-20T16:11:04.669Z,274.03
2022-11-20T16:21:15.196Z,264.90
2022-11-20T16:31:20.548Z,263.30
2022-11-20T16:41:27.506Z,267.87
2022-11-20T16:51:35.726Z,286.50
2022-11-20T17:01:43.136Z,290.53
2022-11-20T17:11:46.764Z,281.37
2022-11-20T17:21:51.610Z,294.03
2022-11-20T17:31:55.896Z,280.00
2022-11-20T17:42:18.083Z,272.33
2022-11-20T17:52:21.650Z,276.57
2022-11-20T18:02:26.669Z,277.97
2022-11-20T18:12:30.168Z,265.23
2022-11-20T18:22:35.054Z,277.77
2022-11-20T18:32:38.588Z,285.10
2022-11-20T18:43:01.026Z,269.87
2022-11-20T18:53:04.601Z,267.87
2022-11-20T19:03:09.500Z,273.90
2022-11-20T19:13:13.068Z,266.77
2022-11-20T19:23:21.974Z,258.50
2022-11-20T19:33:25.464Z,264.00
2022-11-20T19:43:30.292Z,257.60
2022-11-20T19:53:33.887Z,267.77
2022-11-20T20:03:39.405Z,249.63
2022-11-20T20:13:43.634Z,261.80
2022-11-20T20:23:53.538Z,266.47
2022-11-20T20:33:57.589Z,253.33
2022-11-20T20:44:20.564Z,265.00
2022-11-20T20:54:25.209Z,270.93
2022-11-20T21:04:30.028Z,260.07
2022-11-20T21:14:33.865Z,276.33
2022-11-20T21:24:38.829Z,315.77
2022-11-20T21:34:42.260Z,316.27
2022-11-20T21:44:47.945Z,320.27
2022-11-20T21:54:51.395Z,314.23
2022-11-20T22:04:56.297Z,324.57
2022-11-20T22:14:59.757Z,325.20
2022-11-20T22:25:04.920Z,316.67
2022-11-20T22:35:09.292Z,317.87
2022-11-20T22:45:14.443Z,300.00
2022-11-20T22:55:18.054Z,316.67
2022-11-20T23:05:22.839Z,284.83
2022-11-20T23:15:26.336Z,295.00
2022-11-20T23:25:31.179Z,291.53
2022-11-20T23:35:39.853Z,288.30
2022-11-20T23:45:45.232Z,289.10
2022-11-20T23:55:50.711Z,285.00
